Time;durP1;ratioP1;P1;durP2;ratioP2;P2;SDS_P1;SDS_P2;PMS_P1;PMS_P2;Temp;Humidity;BMP_temperature;BMP_pressure;BME280_temperature;BME280_humidity;BME280_pressure;Samples;Min_cycle;Max_cycle;Signal;HPM_P1;HPM_P2
2021/07/20 00:02:31;;;;;;;15.85;5.93;;;18.70;86.30;;;;;;4841862;29;20119;-70
2021/07/20 00:04:56;;;;;;;12.40;5.20;;;18.70;86.30;;;;;;4842119;29;20058;-71
2021/07/20 00:07:22;;;;;;;11.57;5.40;;;18.70;86.60;;;;;;4842217;29;20058;-71
2021/07/20 00:09:48;;;;;;;9.60;5.13;;;18.70;86.50;;;;;;4842007;29;20111;-71
2021/07/20 00:12:13;;;;;;;10.27;4.75;;;18.70;86.70;;;;;;4841936;29;20049;-72
2021/07/20 00:14:39;;;;;;;10.60;4.82;;;18.70;86.80;;;;;;4841469;29;20481;-70
2021/07/20 00:17:04;;;;;;;8.05;4.90;;;18.70;86.70;;;;;;4842033;29;20045;-71
2021/07/20 00:19:30;;;;;;;8.68;5.03;;;18.70;87.00;;;;;;4841853;29;20081;-72
2021/07/20 00:21:56;;;;;;;10.30;4.55;;;18.70;86.90;;;;;;4841865;29;20038;-70
2021/07/20 00:24:21;;;;;;;8.80;4.60;;;18.70;86.60;;;;;;4841952;29;20038;-70
2021/07/20 00:26:47;;;;;;;12.35;4.57;;;18.70;86.60;;;;;;4841293;29;20070;-71
2021/07/20 00:29:13;;;;;;;11.35;5.22;;;18.70;86.50;;;;;;4841690;29;20030;-71
2021/07/20 00:31:39;;;;;;;9.85;4.75;;;18.60;86.90;;;;;;4841777;29;20030;-71
2021/07/20 00:34:06;;;;;;;11.23;5.05;;;18.50;87.30;;;;;;4841575;29;20044;-71
2021/07/20 00:36:32;;;;;;;9.23;4.50;;;18.30;88.00;;;;;;4841200;29;20410;-70
2021/07/20 00:38:58;;;;;;;11.77;4.95;;;18.40;88.00;;;;;;4842219;29;20044;-69
2021/07/20 00:41:23;;;;;;;13.85;5.18;;;18.40;88.10;;;;;;4825165;29;20034;-71
2021/07/20 00:43:49;;;;;;;14.30;4.80;;;18.40;88.10;;;;;;4841443;29;20457;-71
2021/07/20 00:46:15;;;;;;;8.48;4.13;;;18.40;88.30;;;;;;4841273;29;20077;-70
2021/07/20 00:48:41;;;;;;;10.48;4.97;;;18.30;88.30;;;;;;4841449;29;20128;-71
2021/07/20 00:51:06;;;;;;;9.75;4.90;;;18.30;88.40;;;;;;4841494;29;20125;-70
2021/07/20 00:53:32;;;;;;;8.18;4.60;;;18.30;88.50;;;;;;4841903;29;20087;-71
2021/07/20 00:55:58;;;;;;;8.70;4.28;;;18.30;89.20;;;;;;4841643;29;20034;-70
2021/07/20 00:58:24;;;;;;;9.57;5.10;;;18.30;88.60;;;;;;4841259;29;20113;-71
2021/07/20 01:00:52;;;;;;;12.60;4.57;;;18.20;88.80;;;;;;4841075;29;20063;-70
2021/07/20 01:03:18;;;;;;;;;;;18.10;89.10;;;;;;4841474;29;20042;-69
2021/07/20 01:05:44;;;;;;;7.70;4.18;;;18.20;89.30;;;;;;4841353;29;20036;-72
2021/07/20 01:08:11;;;;;;;9.50;4.53;;;18.20;89.00;;;;;;4841111;29;20066;-70
2021/07/20 01:10:40;;;;;;;8.02;4.75;;;18.10;89.20;;;;;;4840902;29;20034;-70
2021/07/20 01:13:07;;;;;;;10.52;4.68;;;18.20;89.40;;;;;;4840904;29;20045;-70
2021/07/20 01:15:33;;;;;;;9.57;4.30;;;18.20;89.40;;;;;;4840910;29;20698;-70
2021/07/20 01:18:00;;;;;;;14.55;4.43;;;18.30;89.80;;;;;;4841225;29;20117;-70
2021/07/20 01:20:29;;;;;;;10.35;4.65;;;18.30;89.10;;;;;;4840798;29;20512;-70
2021/07/20 01:23:05;;;;;;;12.18;4.68;;;18.40;88.90;;;;;;4824674;29;20046;-70
2021/07/20 01:25:31;;;;;;;8.80;4.22;;;18.30;89.10;;;;;;4840545;29;20107;-70
2021/07/20 01:28:02;;;;;;;10.70;4.25;;;18.30;89.10;;;;;;4840583;29;20198;-73
2021/07/20 01:30:29;;;;;;;11.43;4.18;;;18.30;89.20;;;;;;4841238;29;20133;-72
2021/07/20 01:32:56;;;;;;;9.77;4.70;;;18.30;89.30;;;;;;4841105;29;20108;-73
2021/07/20 01:35:23;;;;;;;6.67;3.77;;;18.30;89.50;;;;;;4844980;29;20492;-72
2021/07/20 01:37:49;;;;;;;6.90;4.20;;;18.30;89.40;;;;;;4842596;29;20118;-72
2021/07/20 01:40:15;;;;;;;9.52;4.03;;;18.30;89.20;;;;;;4858944;29;20034;-71
2021/07/20 01:42:45;;;;;;;12.48;4.38;;;18.40;89.30;;;;;;4858693;29;20033;-69
2021/07/20 01:45:12;;;;;;;7.57;4.30;;;18.30;89.30;;;;;;4858738;29;20028;-70
2021/07/20 01:47:40;;;;;;;15.40;4.40;;;18.40;89.40;;;;;;4859149;29;20037;-70
2021/07/20 01:50:06;;;;;;;;;;;18.30;89.50;;;;;;4859149;29;20033;-71
2021/07/20 01:52:32;;;;;;;9.65;4.28;;;18.30;89.70;;;;;;4858813;29;19916;-71
2021/07/20 01:54:59;;;;;;;9.75;3.97;;;18.30;89.60;;;;;;4858999;29;20040;-71
2021/07/20 01:57:25;;;;;;;9.05;3.58;;;18.30;89.60;;;;;;4858770;29;20029;-70
2021/07/20 01:59:50;;;;;;;7.95;3.97;;;18.30;89.60;;;;;;4859173;29;20029;-71
2021/07/20 02:02:35;;;;;;;6.75;3.42;;;18.30;89.30;;;;;;4858603;29;20491;-70
2021/07/20 02:10:35;;;;;;;10.38;3.70;;;18.20;90.00;;;;;;4858807;29;20066;-70
2021/07/20 02:13:02;;;;;;;9.75;3.88;;;18.20;90.00;;;;;;4858337;29;20033;-71
2021/07/20 02:15:30;;;;;;;7.97;3.67;;;18.20;90.00;;;;;;4858390;29;20070;-71
2021/07/20 02:17:56;;;;;;;7.80;4.25;;;18.20;90.20;;;;;;4858786;29;20085;-70
2021/07/20 02:20:27;;;;;;;8.05;3.30;;;18.20;90.20;;;;;;4858440;29;20108;-71
2021/07/20 02:22:54;;;;;;;13.05;4.88;;;18.10;90.30;;;;;;4858575;29;20038;-70
2021/07/20 02:25:24;;;;;;;6.50;3.20;;;17.80;90.50;;;;;;4858385;29;20030;-71
2021/07/20 02:27:50;;;;;;;5.75;3.65;;;18.00;90.50;;;;;;4858426;29;20372;-71
2021/07/20 02:30:17;;;;;;;10.73;4.35;;;18.00;90.50;;;;;;4858180;29;20025;-72
2021/07/20 02:32:45;;;;;;;10.87;3.80;;;18.00;90.50;;;;;;4859053;29;20049;-70
2021/07/20 02:35:12;;;;;;;6.75;3.38;;;18.10;90.50;;;;;;4858364;29;20033;-70
2021/07/20 02:37:40;;;;;;;6.20;3.78;;;18.10;90.30;;;;;;4860702;29;20037;-71
2021/07/20 02:40:07;;;;;;;7.00;3.72;;;18.10;90.50;;;;;;4862132;29;20086;-72
2021/07/20 02:42:35;;;;;;;13.18;4.63;;;18.10;90.50;;;;;;4861934;29;20479;-71
2021/07/20 02:45:02;;;;;;;;;;;18.10;90.50;;;;;;4862681;29;20325;-69
2021/07/20 02:47:28;;;;;;;11.73;3.87;;;18.10;90.60;;;;;;4846048;29;20242;-71
2021/07/20 02:49:54;;;;;;;15.27;3.70;;;18.10;90.50;;;;;;4861763;29;20480;-71
2021/07/20 02:52:21;;;;;;;8.05;3.40;;;18.20;90.50;;;;;;4861937;29;20097;-71
2021/07/20 02:54:47;;;;;;;9.48;2.95;;;18.10;90.40;;;;;;4861901;29;20037;-72
2021/07/20 02:57:15;;;;;;;7.53;3.42;;;18.20;90.60;;;;;;4861957;29;20101;-71
2021/07/20 02:59:42;;;;;;;;;;;18.20;90.50;;;;;;4862630;29;20040;-70
2021/07/20 03:02:08;;;;;;;8.85;3.58;;;18.20;90.50;;;;;;4861621;29;19935;-70
2021/07/20 03:04:33;;;;;;;7.90;3.05;;;18.20;90.40;;;;;;4861665;29;20034;-71
2021/07/20 03:07:08;;;;;;;7.82;3.55;;;18.20;90.50;;;;;;4861865;29;20320;-70
2021/07/20 03:09:35;;;;;;;7.28;3.30;;;18.20;90.60;;;;;;4861611;29;20346;-71
2021/07/20 03:12:09;;;;;;;10.38;3.67;;;18.20;90.60;;;;;;4861937;29;20026;-70
2021/07/20 03:14:35;;;;;;;9.35;3.60;;;18.10;90.60;;;;;;4862011;29;20048;-71
2021/07/20 03:17:02;;;;;;;9.88;4.03;;;18.10;90.70;;;;;;4861326;29;20037;-70
2021/07/20 03:19:30;;;;;;;8.50;3.60;;;18.10;90.80;;;;;;4861268;29;20049;-70
2021/07/20 03:22:00;;;;;;;9.20;4.03;;;18.10;90.80;;;;;;4861251;29;20049;-71
2021/07/20 03:24:26;;;;;;;8.70;4.13;;;18.10;90.70;;;;;;4861382;29;20037;-70
2021/07/20 03:26:55;;;;;;;10.07;3.58;;;18.20;90.70;;;;;;4845369;29;20550;-73
2021/07/20 03:29:24;;;;;;;7.43;4.00;;;18.20;90.80;;;;;;4861204;29;20120;-71
2021/07/20 03:31:50;;;;;;;11.07;4.32;;;18.10;90.80;;;;;;4861318;29;20066;-71
2021/07/20 03:34:18;;;;;;;7.68;3.58;;;18.20;90.90;;;;;;4861219;29;20412;-71
2021/07/20 03:36:44;;;;;;;10.37;4.43;;;18.10;90.80;;;;;;4861313;29;20117;-70
2021/07/20 03:39:09;;;;;;;8.35;3.88;;;18.10;90.90;;;;;;4861115;29;20340;-72
2021/07/20 03:41:36;;;;;;;12.25;3.97;;;18.10;91.00;;;;;;4861643;29;20025;-71
2021/07/20 03:44:02;;;;;;;9.93;4.25;;;18.20;91.00;;;;;;4861122;29;20035;-70
2021/07/20 03:46:28;;;;;;;11.20;4.43;;;18.10;91.20;;;;;;4860874;29;20033;-71
2021/07/20 03:48:54;;;;;;;8.77;3.63;;;18.10;91.20;;;;;;4860737;29;20116;-71
2021/07/20 03:51:23;;;;;;;10.70;4.55;;;18.00;91.40;;;;;;4860704;29;20090;-72
2021/07/20 03:53:50;;;;;;;13.60;4.35;;;17.90;91.60;;;;;;4861249;29;20444;-72
2021/07/20 03:56:16;;;;;;;8.25;4.03;;;18.00;91.60;;;;;;4860484;29;20757;-72
2021/07/20 03:58:42;;;;;;;10.40;4.63;;;18.00;91.70;;;;;;4844534;29;20389;-71
2021/07/20 04:01:09;;;;;;;12.32;4.75;;;18.00;91.70;;;;;;4860616;29;20033;-70
2021/07/20 04:03:35;;;;;;;11.63;4.40;;;17.80;91.80;;;;;;4860441;29;20061;-70
2021/07/20 04:06:04;;;;;;;11.57;4.65;;;17.90;91.80;;;;;;4860982;29;20029;-70
2021/07/20 04:08:31;;;;;;;6.90;4.03;;;17.80;91.90;;;;;;4860678;29;20017;-72
2021/07/20 04:10:58;;;;;;;8.60;4.43;;;17.90;91.90;;;;;;4844232;29;20041;-72
2021/07/20 04:13:24;;;;;;;12.55;5.10;;;17.90;92.00;;;;;;4844098;29;20041;-71
2021/07/20 04:15:55;;;;;;;11.90;5.40;;;17.90;92.00;;;;;;4844245;29;20392;-70
2021/07/20 04:18:21;;;;;;;10.75;4.97;;;17.90;92.10;;;;;;4860520;29;20413;-70
2021/07/20 04:20:48;;;;;;;13.68;4.95;;;17.90;92.20;;;;;;4860748;29;20472;-71
2021/07/20 04:23:16;;;;;;;9.85;4.93;;;17.80;92.20;;;;;;4860366;29;20029;-70
2021/07/20 04:25:44;;;;;;;8.15;4.72;;;18.00;92.10;;;;;;4860167;29;20095;-71
2021/07/20 04:28:11;;;;;;;11.52;4.72;;;18.00;92.30;;;;;;4860096;29;20060;-70
2021/07/20 04:30:37;;;;;;;12.05;5.07;;;17.80;92.50;;;;;;4843740;29;20124;-70
2021/07/20 04:33:04;;;;;;;12.88;5.47;;;17.80;92.50;;;;;;4860170;29;20026;-70
2021/07/20 04:35:30;;;;;;;13.98;5.57;;;17.90;92.40;;;;;;4860656;29;20621;-71
2021/07/20 04:37:57;;;;;;;9.90;5.75;;;18.00;92.30;;;;;;4859982;29;20033;-71
2021/07/20 04:40:23;;;;;;;11.25;5.68;;;18.00;92.40;;;;;;4860142;29;20068;-70
2021/07/20 04:42:49;;;;;;;7.18;4.82;;;18.10;92.30;;;;;;4857610;29;20061;-71
2021/07/20 04:45:16;;;;;;;11.52;5.07;;;18.10;92.50;;;;;;4841596;29;20034;-70
2021/07/20 04:47:43;;;;;;;13.73;5.35;;;18.10;92.40;;;;;;4841382;29;20028;-71
2021/07/20 04:50:11;;;;;;;11.27;5.47;;;18.10;92.30;;;;;;4841122;29;20092;-70
2021/07/20 04:52:39;;;;;;;11.23;4.85;;;18.10;92.50;;;;;;4841343;29;20067;-70
2021/07/20 04:55:06;;;;;;;10.07;6.38;;;18.10;92.60;;;;;;4841389;29;20042;-70
2021/07/20 04:57:31;;;;;;;9.35;5.63;;;18.00;92.60;;;;;;4841124;29;20469;-71
2021/07/20 04:59:58;;;;;;;13.38;5.15;;;17.90;92.70;;;;;;4841055;29;20042;-71
2021/07/20 05:02:24;;;;;;;12.05;4.80;;;17.90;92.90;;;;;;4840893;29;20466;-70
2021/07/20 05:04:51;;;;;;;13.68;4.78;;;17.90;92.80;;;;;;4840917;29;20699;-70
2021/07/20 05:07:18;;;;;;;18.27;6.05;;;17.90;92.80;;;;;;4840971;29;20049;-70
2021/07/20 05:09:45;;;;;;;9.43;5.82;;;18.00;93.00;;;;;;4841055;29;20034;-71
2021/07/20 05:12:15;;;;;;;12.85;5.07;;;17.90;93.00;;;;;;4852509;29;20463;-70
2021/07/20 05:14:41;;;;;;;16.02;5.47;;;18.00;93.00;;;;;;4834582;29;20082;-71
2021/07/20 05:17:09;;;;;;;15.77;5.25;;;18.00;93.00;;;;;;4822936;29;20041;-72
2021/07/20 05:19:35;;;;;;;16.42;4.97;;;18.00;92.90;;;;;;4823044;29;20039;-71
2021/07/20 05:22:02;;;;;;;16.45;5.40;;;18.10;92.60;;;;;;4822812;29;20034;-70
2021/07/20 05:24:30;;;;;;;16.38;5.75;;;18.10;92.60;;;;;;4822948;29;20135;-72
2021/07/20 05:26:57;;;;;;;11.57;4.82;;;18.10;92.60;;;;;;4823281;29;20138;-73
2021/07/20 05:29:24;;;;;;;13.23;4.95;;;18.10;92.60;;;;;;4834043;29;20492;-72
2021/07/20 05:31:50;;;;;;;11.90;5.00;;;18.00;92.60;;;;;;4842608;29;20051;-70
2021/07/20 05:34:17;;;;;;;15.60;5.60;;;17.90;92.70;;;;;;4858921;29;20053;-72
2021/07/20 05:36:44;;;;;;;17.77;5.78;;;18.00;92.60;;;;;;4858801;29;20127;-72
2021/07/20 05:39:11;;;;;;;16.23;5.95;;;18.10;92.60;;;;;;4859044;29;20121;-72
2021/07/20 05:41:41;;;;;;;12.48;5.95;;;18.00;92.60;;;;;;4824566;29;20039;-70
2021/07/20 05:44:14;;;;;;;13.25;5.60;;;18.00;92.80;;;;;;4822487;29;20121;-69
2021/07/20 05:46:41;;;;;;;16.23;6.05;;;18.10;92.90;;;;;;4822130;29;20027;-68
2021/07/20 05:49:09;;;;;;;17.17;5.70;;;18.00;92.90;;;;;;4822130;29;20137;-68
2021/07/20 05:51:37;;;;;;;;;;;18.00;92.80;;;;;;4822703;29;20180;-69
2021/07/20 05:54:03;;;;;;;11.70;5.43;;;17.90;92.90;;;;;;4822234;29;19920;-68
2021/07/20 05:56:31;;;;;;;13.80;5.65;;;18.00;92.90;;;;;;4821696;29;20120;-69
2021/07/20 05:58:58;;;;;;;12.53;5.87;;;18.10;93.00;;;;;;4822158;29;20259;-69
2021/07/20 06:01:25;;;;;;;12.88;5.57;;;18.10;92.80;;;;;;4821950;29;20038;-70
2021/07/20 06:03:53;;;;;;;17.48;5.65;;;18.10;92.90;;;;;;4821937;29;20105;-69
2021/07/20 06:06:19;;;;;;;11.25;5.53;;;18.20;92.80;;;;;;4822016;29;20030;-68
2021/07/20 06:08:45;;;;;;;11.75;4.85;;;18.20;92.80;;;;;;4822386;29;20479;-69
2021/07/20 06:11:11;;;;;;;11.20;5.47;;;18.30;92.70;;;;;;4821226;29;20053;-69
2021/07/20 06:13:40;;;;;;;14.18;5.40;;;18.20;92.50;;;;;;4821502;29;20042;-70
2021/07/20 06:16:07;;;;;;;11.88;5.97;;;18.10;92.40;;;;;;4820899;29;20360;-71
2021/07/20 06:18:35;;;;;;;11.75;5.22;;;18.00;92.40;;;;;;4821082;29;20046;-69
2021/07/20 06:21:04;;;;;;;14.18;6.43;;;18.10;92.60;;;;;;4822087;29;20031;-69
2021/07/20 06:23:39;;;;;;;14.50;5.43;;;18.20;92.50;;;;;;4822754;29;20023;-69
2021/07/20 06:26:05;;;;;;;15.48;6.18;;;18.30;92.60;;;;;;4821734;29;20034;-70
2021/07/20 06:28:32;;;;;;;14.00;5.93;;;18.40;92.40;;;;;;4820642;29;20052;-69
2021/07/20 06:30:58;;;;;;;13.45;4.93;;;18.40;92.40;;;;;;4821731;29;20068;-70
2021/07/20 06:33:25;;;;;;;12.80;5.50;;;18.40;92.40;;;;;;4821680;29;20035;-69
2021/07/20 06:35:52;;;;;;;12.25;5.43;;;18.40;92.30;;;;;;4821980;29;20106;-70
2021/07/20 06:38:21;;;;;;;9.40;5.70;;;18.50;92.30;;;;;;4821521;29;20038;-68
2021/07/20 06:40:54;;;;;;;15.55;8.43;;;18.50;92.20;;;;;;4821555;29;20038;-69
2021/07/20 06:43:22;;;;;;;12.20;5.50;;;18.50;92.30;;;;;;4821713;29;20470;-71
2021/07/20 06:45:49;;;;;;;24.27;7.18;;;18.50;92.10;;;;;;4821467;29;20046;-70
2021/07/20 06:48:18;;;;;;;15.05;5.82;;;18.50;92.30;;;;;;4821419;29;20091;-69
2021/07/20 06:50:47;;;;;;;11.82;5.05;;;18.50;92.30;;;;;;4821013;29;20095;-69
2021/07/20 06:53:13;;;;;;;14.18;5.55;;;18.60;92.30;;;;;;4821419;29;20038;-70
2021/07/20 06:55:51;;;;;;;8.88;4.45;;;18.70;92.10;;;;;;4821621;29;20035;-69
2021/07/20 06:58:22;;;;;;;8.15;4.45;;;18.70;92.00;;;;;;4821226;29;20461;-68
2021/07/20 07:00:51;;;;;;;13.93;4.82;;;18.80;91.80;;;;;;4821424;29;20042;-68
2021/07/20 07:03:21;;;;;;;10.68;4.70;;;18.90;91.90;;;;;;4821184;29;20129;-69
2021/07/20 07:05:47;;;;;;;11.13;4.53;;;18.90;91.80;;;;;;4822197;29;20593;-71
2021/07/20 07:08:14;;;;;;;11.15;5.15;;;18.90;91.70;;;;;;4821583;29;20129;-71
2021/07/20 07:10:40;;;;;;;12.32;4.85;;;18.90;91.70;;;;;;4821238;29;20122;-71
2021/07/20 07:13:08;;;;;;;15.27;5.15;;;18.90;91.70;;;;;;4821212;29;20041;-70
2021/07/20 07:15:35;;;;;;;13.10;4.75;;;19.00;91.60;;;;;;4821274;29;20046;-71
2021/07/20 07:18:02;;;;;;;13.43;4.83;;;19.00;91.50;;;;;;4821601;29;20084;-71
2021/07/20 07:20:28;;;;;;;11.68;5.03;;;19.10;91.40;;;;;;4821210;29;20725;-71
2021/07/20 07:22:55;;;;;;;9.02;4.55;;;19.20;91.30;;;;;;4822315;29;20034;-72
2021/07/20 07:25:21;;;;;;;10.15;4.55;;;19.20;91.40;;;;;;4824456;29;20030;-71
2021/07/20 07:27:49;;;;;;;10.88;4.60;;;19.20;91.40;;;;;;4824313;29;20313;-70
2021/07/20 07:30:16;;;;;;;;;;;19.30;91.40;;;;;;4824713;29;20037;-72
2021/07/20 07:32:42;;;;;;;10.13;4.57;;;19.30;91.10;;;;;;4824747;29;19905;-69
2021/07/20 07:35:09;;;;;;;15.35;5.78;;;19.30;91.10;;;;;;4823292;29;20038;-71
2021/07/20 07:37:35;;;;;;;12.32;4.90;;;19.30;91.10;;;;;;4824369;29;20121;-70
2021/07/20 07:40:05;;;;;;;13.35;5.00;;;19.40;91.10;;;;;;4824144;29;20421;-71
2021/07/20 07:42:32;;;;;;;10.60;5.43;;;19.60;90.90;;;;;;4824053;29;20038;-70
2021/07/20 07:44:59;;;;;;;10.10;4.53;;;19.60;90.80;;;;;;4824646;29;20601;-70
2021/07/20 07:47:25;;;;;;;9.45;4.72;;;19.60;90.70;;;;;;4824087;29;20038;-70
2021/07/20 07:49:51;;;;;;;11.52;5.53;;;19.70;90.60;;;;;;4823715;29;20031;-70
2021/07/20 07:52:17;;;;;;;11.60;4.88;;;19.70;90.40;;;;;;4822877;29;20050;-70
2021/07/20 07:54:45;;;;;;;12.25;4.88;;;19.70;90.30;;;;;;4824148;29;20125;-71
2021/07/20 07:57:11;;;;;;;6.68;3.95;;;19.80;90.30;;;;;;4823870;29;20365;-71
2021/07/20 07:59:40;;;;;;;14.00;4.80;;;19.70;90.20;;;;;;4824388;29;20484;-70
2021/07/20 08:02:11;;;;;;;8.63;4.00;;;19.70;90.30;;;;;;4807489;29;20129;-71
2021/07/20 08:04:39;;;;;;;13.02;5.57;;;19.30;90.30;;;;;;4824050;29;20117;-71
2021/07/20 08:07:05;;;;;;;9.07;4.13;;;19.40;90.20;;;;;;4823815;29;20496;-71
2021/07/20 08:09:32;;;;;;;15.85;5.13;;;19.40;90.00;;;;;;4823746;29;20048;-71
2021/07/20 08:12:00;;;;;;;13.05;5.28;;;19.50;90.50;;;;;;4824177;29;20580;-70
2021/07/20 08:14:26;;;;;;;;;;;19.40;90.10;;;;;;4824113;29;20070;-73
2021/07/20 08:16:57;;;;;;;11.90;4.50;;;19.50;90.20;;;;;;4823697;29;19963;-72
2021/07/20 08:19:26;;;;;;;9.93;5.00;;;19.40;89.20;;;;;;4823411;29;20065;-72
2021/07/20 08:21:58;;;;;;;10.88;5.93;;;19.30;90.00;;;;;;4823525;29;20042;-71
2021/07/20 08:24:23;;;;;;;12.32;4.90;;;19.40;89.80;;;;;;4823429;29;20038;-72
2021/07/20 08:26:59;;;;;;;15.15;5.03;;;19.60;89.90;;;;;;4822882;29;20081;-70
2021/07/20 08:29:31;;;;;;;11.20;4.28;;;19.80;90.10;;;;;;4823240;29;20045;-70
2021/07/20 08:32:02;;;;;;;9.02;4.30;;;19.80;88.90;;;;;;4823505;29;20034;-70
2021/07/20 08:34:31;;;;;;;11.57;4.50;;;19.80;88.70;;;;;;4821421;29;20521;-70
2021/07/20 08:37:00;;;;;;;8.80;4.60;;;19.90;88.40;;;;;;4822577;29;20106;-69
2021/07/20 08:39:26;;;;;;;8.98;3.90;;;20.00;88.10;;;;;;4823134;29;20129;-69
2021/07/20 08:42:29;;;;;;;9.23;3.95;;;20.10;87.40;;;;;;4822441;29;20034;-70
2021/07/20 08:45:22;;;;;;;9.07;4.22;;;20.20;87.10;;;;;;4823443;29;20046;-69
2021/07/20 08:48:13;;;;;;;9.27;3.75;;;20.30;86.30;;;;;;4823590;29;20473;-71
2021/07/20 08:50:47;;;;;;;9.00;4.10;;;20.20;86.90;;;;;;4823348;29;20058;-71
2021/07/20 08:53:34;;;;;;;10.38;3.67;;;20.30;86.40;;;;;;4823165;29;20107;-69
2021/07/20 08:56:02;;;;;;;8.57;3.03;;;20.40;85.80;;;;;;4822032;29;20047;-69
2021/07/20 08:58:30;;;;;;;;;;;20.50;84.60;;;;;;4823190;29;20042;-70
2021/07/20 09:01:12;;;;;;;9.05;2.95;;;20.50;83.30;;;;;;4822893;29;20361;-69
2021/07/20 09:03:45;;;;;;;7.80;3.80;;;20.70;83.30;;;;;;4822608;29;20058;-69
2021/07/20 09:06:33;;;;;;;5.45;3.22;;;20.90;83.10;;;;;;4822926;29;20034;-68
2021/07/20 09:09:24;;;;;;;8.85;3.25;;;21.00;83.10;;;;;;4823124;29;20041;-69
2021/07/20 09:11:57;;;;;;;6.00;2.67;;;21.00;82.60;;;;;;4806252;29;20051;-69
2021/07/20 09:14:33;;;;;;;5.55;3.05;;;20.80;80.60;;;;;;4822909;29;20050;-69
2021/07/20 09:17:22;;;;;;;9.18;2.97;;;20.70;81.10;;;;;;4822975;29;20038;-70
2021/07/20 09:20:04;;;;;;;6.60;3.20;;;20.70;79.60;;;;;;4822456;29;20050;-70
2021/07/20 09:22:38;;;;;;;10.85;3.35;;;21.60;81.10;;;;;;4822907;29;20063;-70
2021/07/20 09:25:15;;;;;;;3.85;2.80;;;22.50;82.70;;;;;;4822807;29;20042;-69
2021/07/20 09:28:04;;;;;;;4.45;2.70;;;22.80;80.00;;;;;;4822536;29;20457;-69
2021/07/20 09:30:43;;;;;;;6.28;2.45;;;23.50;76.70;;;;;;4822448;29;20043;-68
2021/07/20 09:33:41;;;;;;;4.22;2.90;;;23.50;74.40;;;;;;4821407;29;20354;-69
2021/07/20 09:36:32;;;;;;;7.47;2.53;;;23.20;74.30;;;;;;4822388;29;20026;-69
2021/07/20 09:39:10;;;;;;;5.78;3.03;;;22.90;74.10;;;;;;4822940;29;20113;-68
2021/07/20 09:41:50;;;;;;;5.80;2.75;;;22.80;74.80;;;;;;4822697;29;20038;-68
2021/07/20 09:44:23;;;;;;;7.13;2.65;;;22.50;75.60;;;;;;4822302;29;20472;-68
2021/07/20 09:47:05;;;;;;;6.97;2.33;;;22.30;75.40;;;;;;4821171;29;20099;-70
2021/07/20 09:49:58;;;;;;;5.05;2.40;;;22.40;75.30;;;;;;4822386;29;20528;-69
2021/07/20 09:52:41;;;;;;;10.93;2.70;;;22.20;75.10;;;;;;4822260;29;20541;-69
2021/07/20 09:55:40;;;;;;;7.38;2.47;;;22.20;74.60;;;;;;4822271;29;20034;-70
2021/07/20 09:58:21;;;;;;;7.80;2.38;;;22.40;74.60;;;;;;4822029;29;20038;-69
2021/07/20 10:01:26;;;;;;;3.83;2.13;;;22.20;74.50;;;;;;4821734;29;20038;-69
2021/07/20 10:04:18;;;;;;;6.05;2.33;;;22.20;74.20;;;;;;4821864;29;20136;-69
2021/07/20 10:07:09;;;;;;;6.68;2.72;;;22.00;73.90;;;;;;4821878;29;20111;-68
2021/07/20 10:09:53;;;;;;;8.95;2.75;;;22.20;74.40;;;;;;4784250;29;20350;-70
2021/07/20 10:12:26;;;;;;;8.98;2.70;;;22.20;74.80;;;;;;4821948;29;20454;-67
2021/07/20 10:15:04;;;;;;;3.65;2.28;;;22.40;74.40;;;;;;4822373;29;20045;-69
2021/07/20 10:17:43;;;;;;;6.88;2.63;;;22.30;73.90;;;;;;4822157;29;20034;-68
2021/07/20 10:20:15;;;;;;;5.15;2.97;;;22.10;74.40;;;;;;4821850;29;20138;-70
2021/07/20 10:22:54;;;;;;;8.38;2.53;;;22.20;75.00;;;;;;4821831;29;20081;-69
2021/07/20 10:25:37;;;;;;;8.52;4.07;;;22.10;75.30;;;;;;4821721;29;20043;-70
2021/07/20 10:28:26;;;;;;;6.35;2.95;;;22.10;75.40;;;;;;4821902;29;20465;-69
2021/07/20 10:31:07;;;;;;;6.20;3.00;;;21.80;75.00;;;;;;4820815;29;20042;-69
2021/07/20 10:33:43;;;;;;;9.32;3.53;;;21.60;75.30;;;;;;4821695;29;20038;-70
2021/07/20 10:36:28;;;;;;;5.68;2.90;;;21.30;76.80;;;;;;4822056;29;20496;-70
2021/07/20 10:39:04;;;;;;;7.15;2.97;;;21.50;76.90;;;;;;4822019;29;20037;-70
2021/07/20 10:42:00;;;;;;;6.35;2.60;;;21.60;76.90;;;;;;4822146;29;20655;-69
2021/07/20 10:44:36;;;;;;;13.35;4.93;;;21.50;76.90;;;;;;4791008;29;20035;-69
2021/07/20 10:47:04;;;;;;;9.43;3.10;;;21.10;77.40;;;;;;4821601;29;20030;-69
2021/07/20 10:50:03;;;;;;;7.07;3.22;;;21.00;77.80;;;;;;4821585;29;20031;-68
2021/07/20 10:52:51;;;;;;;5.88;3.08;;;21.20;78.30;;;;;;4821387;29;20050;-68
2021/07/20 10:55:41;;;;;;;5.45;2.47;;;21.30;77.90;;;;;;4821627;29;20113;-67
2021/07/20 10:58:50;;;;;;;15.05;3.45;;;21.40;77.70;;;;;;4786946;29;20102;-69
2021/07/20 11:01:35;;;;;;;10.30;4.55;;;21.50;77.70;;;;;;4804819;29;20449;-67
2021/07/20 11:04:22;;;;;;;11.77;4.40;;;21.40;78.10;;;;;;4824359;29;20042;-66
2021/07/20 11:06:49;;;;;;;9.30;4.10;;;21.40;77.70;;;;;;4824300;29;20430;-65
2021/07/20 11:09:21;;;;;;;6.50;3.70;;;21.40;78.80;;;;;;4824414;29;20472;-67
2021/07/20 11:11:55;;;;;;;7.15;3.63;;;21.50;77.50;;;;;;4824943;29;20054;-68
2021/07/20 11:14:28;;;;;;;8.15;3.47;;;21.60;77.70;;;;;;4824585;29;20099;-65
2021/07/20 11:16:57;;;;;;;14.13;4.82;;;21.60;76.40;;;;;;4824145;29;20478;-66
2021/07/20 11:19:25;;;;;;;10.75;3.70;;;21.70;76.70;;;;;;4808406;29;20054;-65
2021/07/20 11:21:52;;;;;;;9.25;3.70;;;21.60;75.80;;;;;;4824541;29;20031;-66
2021/07/20 11:24:18;;;;;;;8.20;3.17;;;21.50;76.20;;;;;;4824353;29;20035;-66
2021/07/20 11:26:44;;;;;;;7.90;4.20;;;21.50;76.40;;;;;;4824894;29;20073;-66
2021/07/20 11:29:12;;;;;;;8.90;3.30;;;21.50;77.00;;;;;;4824226;29;20565;-65
2021/07/20 11:31:42;;;;;;;9.05;3.85;;;21.50;76.20;;;;;;4824171;29;20053;-66
2021/07/20 11:34:13;;;;;;;8.90;4.00;;;21.40;77.10;;;;;;4824335;29;20134;-66
2021/07/20 11:36:41;;;;;;;8.73;3.53;;;21.40;77.20;;;;;;4824274;29;20176;-65
2021/07/20 11:39:10;;;;;;;9.25;4.38;;;21.50;76.90;;;;;;4823100;29;20095;-67
2021/07/20 11:41:42;;;;;;;5.55;3.08;;;21.30;76.00;;;;;;4824718;29;20446;-67
2021/07/20 11:44:44;;;;;;;8.95;3.03;;;21.30;76.40;;;;;;4824008;29;20031;-65
2021/07/20 11:47:29;;;;;;;5.97;2.90;;;21.30;76.60;;;;;;4824201;29;20133;-65
2021/07/20 11:50:07;;;;;;;8.55;3.40;;;21.30;76.70;;;;;;4823947;29;20053;-65
2021/07/20 11:52:38;;;;;;;;;;;21.40;77.30;;;;;;4824587;29;20038;-67
2021/07/20 11:55:28;;;;;;;7.60;2.97;;;20.80;77.20;;;;;;4823065;29;19920;-65
2021/07/20 11:58:42;;;;;;;6.60;3.85;;;21.10;78.40;;;;;;4824028;29;20520;-66
2021/07/20 12:01:27;;;;;;;8.45;3.88;;;21.10;77.80;;;;;;4758605;29;20200;-65
2021/07/20 12:04:20;;;;;;;8.40;3.55;;;21.10;77.70;;;;;;4823475;29;20077;-68
2021/07/20 12:06:54;;;;;;;4.95;2.80;;;21.20;77.60;;;;;;4824098;29;20038;-66
2021/07/20 12:09:30;;;;;;;8.35;3.58;;;21.20;78.40;;;;;;4822757;29;20072;-67
2021/07/20 12:11:57;;;;;;;22.00;5.28;;;21.40;78.20;;;;;;4824631;29;20026;-66
2021/07/20 12:14:23;;;;;;;9.52;3.00;;;21.60;78.40;;;;;;4823605;29;20039;-66
2021/07/20 12:16:49;;;;;;;11.27;3.75;;;21.70;77.90;;;;;;4823499;29;20053;-65
2021/07/20 12:19:36;;;;;;;6.35;2.88;;;21.70;78.00;;;;;;4823468;29;20637;-67
2021/07/20 12:22:06;;;;;;;4.97;3.13;;;21.80;79.00;;;;;;4823511;29;20183;-65
2021/07/20 12:24:33;;;;;;;8.48;3.80;;;22.00;78.30;;;;;;4823653;29;20038;-66
2021/07/20 12:26:59;;;;;;;7.10;3.58;;;22.10;77.50;;;;;;4824287;29;20527;-65
2021/07/20 12:29:29;;;;;;;13.55;3.08;;;22.10;76.80;;;;;;4823458;29;20399;-67
2021/07/20 12:31:56;;;;;;;3.80;2.80;;;22.10;77.60;;;;;;4823612;29;20035;-65
2021/07/20 12:34:22;;;;;;;9.90;3.58;;;22.20;77.10;;;;;;4823516;29;20038;-66
2021/07/20 12:36:48;;;;;;;9.90;3.38;;;22.20;76.60;;;;;;4823451;29;20354;-65
2021/07/20 12:39:18;;;;;;;6.72;3.03;;;22.10;76.60;;;;;;4823068;29;20033;-66
2021/07/20 12:41:50;;;;;;;10.23;3.30;;;22.20;76.40;;;;;;4823688;29;20095;-66
2021/07/20 12:44:17;;;;;;;7.85;3.30;;;22.20;76.50;;;;;;4823150;29;20035;-66
2021/07/20 12:46:43;;;;;;;6.97;3.00;;;22.30;76.40;;;;;;4823253;29;20135;-66
2021/07/20 12:49:11;;;;;;;12.00;3.72;;;22.50;76.50;;;;;;4823146;29;20042;-67
2021/07/20 12:51:49;;;;;;;9.43;3.42;;;22.60;76.00;;;;;;4823342;29;20050;-66
2021/07/20 12:54:15;;;;;;;10.00;3.50;;;22.70;76.00;;;;;;4822824;29;20461;-66
2021/07/20 12:56:41;;;;;;;7.07;3.60;;;22.80;76.00;;;;;;4823371;29;20026;-66
2021/07/20 12:59:07;;;;;;;10.35;3.75;;;22.90;75.80;;;;;;4822927;29;20487;-65
2021/07/20 13:01:36;;;;;;;10.30;3.22;;;22.90;74.90;;;;;;4822587;29;20052;-66
2021/07/20 13:04:03;;;;;;;9.13;3.40;;;22.70;74.10;;;;;;4823098;29;20042;-66
2021/07/20 13:06:35;;;;;;;7.03;3.17;;;22.80;74.90;;;;;;4823170;29;20095;-66
2021/07/20 13:09:01;;;;;;;7.30;3.30;;;22.90;74.10;;;;;;4821907;29;20049;-68
2021/07/20 13:11:27;;;;;;;9.52;3.63;;;22.70;73.80;;;;;;4822959;29;20050;-68